Time;durP1;ratioP1;P1;durP2;ratioP2;P2;SDS_P1;SDS_P2;PMS_P1;PMS_P2;Temp;Humidity;BMP_temperature;BMP_pressure;BME280_temperature;BME280_humidity;BME280_pressure;Samples;Min_cycle;Max_cycle;Signal;HPM_P1;HPM_P2
2023/03/24 00:00:32;;;;;;;;;;;;;;;21.92;27.00;98006.47;4978841;28;1008;-76
2023/03/24 00:03:00;;;;;;;;;;;;;;;21.76;27.50;98007.28;4981307;28;1253;-76
2023/03/24 00:05:27;;;;;;;;;;;;;;;21.89;27.20;98007.34;4982612;28;1906;-76
2023/03/24 00:07:53;;;;;;;;;;;;;;;21.99;27.25;97994.91;4981248;28;960;-76
2023/03/24 00:10:19;;;;;;;;;;;;;;;22.29;26.99;98002.97;4998153;28;1027;-76
2023/03/24 00:12:45;;;;;;;;;;;;;;;22.15;27.14;98000.56;4982068;28;984;-75
2023/03/24 00:15:12;;;;;;;;;;;;;;;22.04;27.23;98002.88;4982075;28;1161;-76
2023/03/24 00:17:38;;;;;;;;;;;;;;;21.84;27.42;98000.97;4999264;28;1068;-76
2023/03/24 00:20:13;;;;;;;;;;;;;;;22.21;27.23;98001.59;4981824;28;975;-76
2023/03/24 00:22:49;;;;;;;;;;;;;;;22.21;27.36;98001.59;4965853;28;1066;-77
2023/03/24 00:25:22;;;;;;;;;;;;;;;22.41;27.10;98009.91;4981900;28;1906;-76
2023/03/24 00:27:48;;;;;;;;;;;;;;;21.84;27.91;98003.81;4965878;28;1109;-75
2023/03/24 00:30:14;;;;;;;;;;;;;;;21.66;28.01;98000.69;4981571;28;1238;-77
2023/03/24 00:32:39;;;;;;;;;;;;;;;21.51;28.30;98002.28;4981692;28;1128;-76
2023/03/24 00:35:07;;;;;;;;;;;;;;;22.03;28.08;98001.28;4981248;28;1221;-76
2023/03/24 00:37:36;;;;;;;;;;;;;;;22.27;27.32;97999.00;4982060;28;976;-76
2023/03/24 00:40:06;;;;;;;;;;;;;;;22.32;27.57;97993.56;4965675;28;1065;-76
2023/03/24 00:42:35;;;;;;;;;;;;;;;22.05;27.66;97987.44;4981331;28;933;-76
2023/03/24 00:45:02;;;;;;;;;;;;;;;21.58;28.24;97996.44;4981627;28;1902;-76
2023/03/24 00:47:28;;;;;;;;;;;;;;;21.70;28.40;97983.56;4981417;28;943;-76
2023/03/24 00:49:56;;;;;;;;;;;;;;;21.96;27.76;97987.31;4976130;28;1120;-76
2023/03/24 00:52:23;;;;;;;;;;;;;;;22.06;27.53;97983.38;4976952;28;1005;-76
2023/03/24 00:54:50;;;;;;;;;;;;;;;22.40;27.31;97982.03;4960281;28;1034;-76
2023/03/24 00:57:22;;;;;;;;;;;;;;;22.71;26.70;97977.41;4976690;28;1036;-76
2023/03/24 00:59:48;;;;;;;;;;;;;;;22.14;27.20;97984.78;4937755;29;1176;-76
2023/03/24 01:02:20;;;;;;;;;;;;;;;21.89;27.59;97976.19;4937822;29;1105;-75
2023/03/24 01:04:56;;;;;;;;;;;;;;;21.79;27.83;97972.41;4937751;29;1907;-76
2023/03/24 01:07:22;;;;;;;;;;;;;;;22.16;27.34;97975.84;4937925;29;1007;-76
2023/03/24 01:09:56;;;;;;;;;;;;;;;22.19;27.04;97977.78;4937883;29;1618;-75
2023/03/24 01:12:25;;;;;;;;;;;;;;;22.21;27.23;97973.25;4937967;29;1052;-76
2023/03/24 01:14:52;;;;;;;;;;;;;;;21.70;27.72;97969.41;4937597;29;1054;-76
2023/03/24 01:17:18;;;;;;;;;;;;;;;21.71;27.61;97980.31;4938137;29;964;-76
2023/03/24 01:19:44;;;;;;;;;;;;;;;21.84;27.23;97978.31;4937908;29;1012;-76
2023/03/24 01:22:09;;;;;;;;;;;;;;;22.02;27.45;97971.34;4956973;29;922;-76
2023/03/24 01:24:35;;;;;;;;;;;;;;;22.17;27.04;97972.53;4924593;29;1895;-76
2023/03/24 01:27:01;;;;;;;;;;;;;;;22.40;27.02;97973.50;4924909;29;1076;-76
2023/03/24 01:29:27;;;;;;;;;;;;;;;21.74;27.73;97979.41;4940597;29;1157;-75
2023/03/24 01:31:52;;;;;;;;;;;;;;;21.74;28.11;97967.28;4977476;28;964;-76
2023/03/24 01:34:18;;;;;;;;;;;;;;;21.51;28.21;97971.16;4979207;28;1246;-76
2023/03/24 01:36:43;;;;;;;;;;;;;;;21.81;28.16;97962.22;4979548;28;1072;-76
2023/03/24 01:39:09;;;;;;;;;;;;;;;22.15;27.42;97975.03;4975379;28;1016;-76
2023/03/24 01:41:35;;;;;;;;;;;;;;;22.28;27.26;97973.03;4959822;28;1024;-75
2023/03/24 01:44:01;;;;;;;;;;;;;;;21.89;27.77;97967.69;4959540;28;1966;-76
2023/03/24 01:46:28;;;;;;;;;;;;;;;21.97;27.65;97969.09;4927940;28;1232;-76
2023/03/24 01:48:55;;;;;;;;;;;;;;;21.69;28.11;97970.66;4959447;28;1109;-76
2023/03/24 01:51:22;;;;;;;;;;;;;;;21.86;28.00;97969.34;4959356;28;1115;-76
2023/03/24 01:53:58;;;;;;;;;;;;;;;22.15;27.73;97975.03;4959298;28;1068;-76
2023/03/24 01:56:24;;;;;;;;;;;;;;;22.32;27.37;97970.09;4917658;29;1254;-76
2023/03/24 01:58:51;;;;;;;;;;;;;;;22.05;27.56;97967.63;4886558;29;1684;-75
2023/03/24 02:01:25;;;;;;;;;;;;;;;21.75;28.14;97968.88;4887682;29;1149;-76
2023/03/24 02:04:14;;;;;;;;;;;;;;;21.56;28.66;97967.78;4867565;29;1969;-76
2023/03/24 02:06:40;;;;;;;;;;;;;;;22.18;27.61;97968.50;4880243;29;1351;-76
2023/03/24 02:09:07;;;;;;;;;;;;;;;22.31;27.70;97974.97;4846226;29;1177;-76
2023/03/24 02:11:33;;;;;;;;;;;;;;;22.03;27.91;97975.78;4846109;29;1024;-76
2023/03/24 02:14:02;;;;;;;;;;;;;;;21.89;27.89;97973.34;4861350;29;1165;-76
2023/03/24 02:16:46;;;;;;;;;;;;;;;21.83;27.98;97971.06;4861651;29;1223;-75
2023/03/24 02:19:36;;;;;;;;;;;;;;;22.11;27.76;97974.34;4861321;29;1078;-76
2023/03/24 02:22:03;;;;;;;;;;;;;;;22.24;27.44;97978.03;4861356;29;1360;-76
2023/03/24 02:24:46;;;;;;;;;;;;;;;21.68;28.15;97981.19;4861249;29;1990;-75
2023/03/24 02:27:15;;;;;;;;;;;;;;;21.83;28.26;97985.22;4884568;29;931;-76
2023/03/24 02:29:41;;;;;;;;;;;;;;;21.77;28.17;97989.84;4901864;29;1209;-76
2023/03/24 02:32:09;;;;;;;;;;;;;;;22.03;28.16;97987.13;4898490;29;1284;-75
2023/03/24 02:34:50;;;;;;;;;;;;;;;22.21;27.76;97989.44;4882690;29;1163;-76
2023/03/24 02:37:21;;;;;;;;;;;;;;;21.94;28.02;98001.13;4882997;29;1214;-76
2023/03/24 02:39:58;;;;;;;;;;;;;;;21.82;28.48;97997.00;4854040;29;1237;-75
2023/03/24 02:42:29;;;;;;;;;;;;;;;21.70;28.49;98009.84;4863597;29;1079;-76
2023/03/24 02:45:04;;;;;;;;;;;;;;;21.90;28.57;98003.25;4879626;29;1974;-76
2023/03/24 02:47:34;;;;;;;;;;;;;;;22.29;28.00;98013.53;4864164;29;1073;-75
2023/03/24 02:50:05;;;;;;;;;;;;;;;22.49;27.25;98010.50;4880020;29;1042;-76
2023/03/24 02:52:32;;;;;;;;;;;;;;;22.00;28.22;98013.50;4863977;29;1190;-76
2023/03/24 02:55:18;;;;;;;;;;;;;;;21.89;28.30;98007.34;4827421;29;1242;-76
2023/03/24 02:58:03;;;;;;;;;;;;;;;21.83;28.05;98010.72;4827453;29;1037;-76
2023/03/24 03:00:58;;;;;;;;;;;;;;;22.17;28.06;98006.56;4814399;29;1288;-76
2023/03/24 03:03:44;;;;;;;;;;;;;;;22.28;27.99;98007.06;4830052;29;1113;-75
2023/03/24 03:06:12;;;;;;;;;;;;;;;21.92;28.26;98017.78;4811996;29;1465;-76
2023/03/24 03:08:38;;;;;;;;;;;;;;;21.86;28.14;98014.69;4816361;29;1069;-76
2023/03/24 03:11:04;;;;;;;;;;;;;;;21.77;28.60;98006.06;4898166;29;1613;-76
2023/03/24 03:13:31;;;;;;;;;;;;;;;22.04;28.48;98014.19;4904350;29;1141;-76
2023/03/24 03:15:58;;;;;;;;;;;;;;;22.05;28.09;98004.44;4904458;29;1161;-76
2023/03/24 03:18:38;;;;;;;;;;;;;;;22.28;27.63;98007.06;4904132;29;1279;-76
2023/03/24 03:21:06;;;;;;;;;;;;;;;21.94;28.29;98004.75;4920207;29;1046;-75
2023/03/24 03:23:34;;;;;;;;;;;;;;;21.83;28.26;98001.44;4920885;29;1908;-76
2023/03/24 03:26:03;;;;;;;;;;;;;;;21.81;28.51;97990.56;4970269;28;1902;-76
2023/03/24 03:28:31;;;;;;;;;;;;;;;22.33;27.72;97989.50;4965643;28;1254;-76
2023/03/24 03:30:57;;;;;;;;;;;;;;;22.48;27.78;97980.53;4997499;28;1050;-76
2023/03/24 03:33:25;;;;;;;;;;;;;;;22.07;28.21;97967.94;4981337;28;973;-76
2023/03/24 03:35:51;;;;;;;;;;;;;;;21.89;28.10;97973.34;4997948;28;966;-76
2023/03/24 03:38:24;;;;;;;;;;;;;;;21.68;28.50;97975.53;4997429;28;1216;-75
2023/03/24 03:40:52;;;;;;;;;;;;;;;21.97;28.67;97969.09;4965164;28;1448;-76
2023/03/24 03:43:21;;;;;;;;;;;;;;;22.19;28.21;97975.75;4965140;28;1279;-76
2023/03/24 03:45:46;;;;;;;;;;;;;;;21.90;28.26;97963.59;4980972;28;1985;-75
2023/03/24 03:48:13;;;;;;;;;;;;;;;21.92;28.38;97975.31;4977353;28;1316;-75
2023/03/24 03:50:38;;;;;;;;;;;;;;;21.76;28.16;97982.59;4961679;28;987;-77
2023/03/24 03:53:06;;;;;;;;;;;;;;;21.98;28.46;97971.47;4977533;28;1190;-76
2023/03/24 03:55:33;;;;;;;;;;;;;;;22.19;28.15;97972.13;4961481;28;1148;-76
2023/03/24 03:57:59;;;;;;;;;;;;;;;22.00;28.00;97968.16;4977984;28;965;-75
2023/03/24 04:00:32;;;;;;;;;;;;;;;21.84;28.26;97978.31;4961534;28;1064;-76
2023/03/24 04:03:16;;;;;;;;;;;;;;;21.78;28.38;97980.09;4973510;28;1628;-76
2023/03/24 04:06:01;;;;;;;;;;;;;;;22.21;27.90;97978.91;5000029;28;1899;-76
2023/03/24 04:08:36;;;;;;;;;;;;;;;22.43;27.54;97975.44;4984481;28;1125;-76
2023/03/24 04:11:25;;;;;;;;;;;;;;;22.04;27.87;97966.03;5000122;28;1275;-76
2023/03/24 04:14:31;;;;;;;;;;;;;;;21.88;28.22;97968.94;4919743;29;1024;-76
2023/03/24 04:17:45;;;;;;;;;;;;;;;21.75;28.22;97980.19;4919859;29;1026;-76
2023/03/24 04:20:21;;;;;;;;;;;;;;;21.97;28.58;97986.09;4903786;29;1245;-76
2023/03/24 04:23:08;;;;;;;;;;;;;;;21.94;28.24;97981.31;4919981;29;1325;-76
2023/03/24 04:25:57;;;;;;;;;;;;;;;22.32;27.57;97979.38;4919284;29;1907;-75
2023/03/24 04:28:25;;;;;;;;;;;;;;;21.64;28.48;97974.81;4916654;29;1141;-76
2023/03/24 04:30:56;;;;;;;;;;;;;;;21.52;28.55;97982.03;4916331;29;1128;-76
2023/03/24 04:33:29;;;;;;;;;;;;;;;21.85;28.48;97990.44;4919204;29;1313;-76
2023/03/24 04:35:57;;;;;;;;;;;;;;;22.12;27.68;97992.94;4903303;29;1088;-76
2023/03/24 04:38:35;;;;;;;;;;;;;;;22.10;27.51;97990.56;4889285;29;1540;-76
2023/03/24 04:41:18;;;;;;;;;;;;;;;21.61;28.65;97992.72;4906206;29;1457;-75
2023/03/24 04:43:53;;;;;;;;;;;;;;;21.65;28.36;97992.59;4938054;29;1910;-75
2023/03/24 04:46:20;;;;;;;;;;;;;;;21.90;28.32;97997.59;4922517;29;1457;-75
2023/03/24 04:49:08;;;;;;;;;;;;;;;22.23;27.51;97999.13;4915161;29;1026;-76
2023/03/24 04:51:37;;;;;;;;;;;;;;;22.07;27.99;98001.94;4903350;29;1327;-76
2023/03/24 04:54:17;;;;;;;;;;;;;;;21.76;28.01;98005.25;4917783;29;1332;-76
2023/03/24 04:56:49;;;;;;;;;;;;;;;21.60;28.25;98019.41;4907601;29;1305;-76
2023/03/24 04:59:20;;;;;;;;;;;;;;;21.88;28.38;98019.91;4938408;29;1152;-75
2023/03/24 05:01:49;;;;;;;;;;;;;;;21.98;27.89;98016.00;4906485;29;1196;-76
2023/03/24 05:04:29;;;;;;;;;;;;;;;21.99;27.90;98017.59;4934169;29;1898;-76
2023/03/24 05:07:02;;;;;;;;;;;;;;;21.84;27.85;98017.97;4926058;29;1342;-76
2023/03/24 05:09:30;;;;;;;;;;;;;;;21.71;27.83;98025.63;4940972;29;1205;-76
2023/03/24 05:11:56;;;;;;;;;;;;;;;21.61;27.60;98026.69;4925587;29;1220;-76
2023/03/24 05:14:22;;;;;;;;;;;;;;;22.07;27.89;98021.78;4954262;28;1136;-76
2023/03/24 05:16:48;;;;;;;;;;;;;;;22.26;27.14;98022.91;4963529;28;1116;-76
2023/03/24 05:19:16;;;;;;;;;;;;;;;22.29;27.20;98031.31;4963359;28;1414;-75
2023/03/24 05:21:42;;;;;;;;;;;;;;;21.84;27.50;98040.63;4963398;28;1133;-76
2023/03/24 05:24:08;;;;;;;;;;;;;;;21.52;27.63;98041.47;4962902;28;1906;-76
2023/03/24 05:26:35;;;;;;;;;;;;;;;21.69;27.96;98045.09;4992667;28;1413;-76
2023/03/24 05:29:14;;;;;;;;;;;;;;;22.14;27.38;98047.13;4987577;28;1050;-76
2023/03/24 05:31:40;;;;;;;;;;;;;;;22.25;27.15;98047.63;5016195;28;1119;-76
2023/03/24 05:34:10;;;;;;;;;;;;;;;21.67;27.39;98050.41;5015928;28;1092;-76
2023/03/24 05:36:47;;;;;;;;;;;;;;;21.80;27.21;98050.47;5001363;28;1305;-76
2023/03/24 05:39:15;;;;;;;;;;;;;;;21.65;27.90;98047.19;4999831;28;1168;-76
2023/03/24 05:41:50;;;;;;;;;;;;;;;22.16;27.15;98055.19;5001003;28;1218;-76
2023/03/24 05:44:15;;;;;;;;;;;;;;;22.08;27.09;98043.25;4999451;28;1894;-76
2023/03/24 05:46:45;;;;;;;;;;;;;;;21.92;27.14;98046.13;5014972;28;1173;-75
2023/03/24 05:49:12;;;;;;;;;;;;;;;21.66;27.87;98051.66;4994443;28;1060;-76
2023/03/24 05:51:40;;;;;;;;;;;;;;;21.72;27.40;98055.53;4962889;28;1288;-75
2023/03/24 05:54:07;;;;;;;;;;;;;;;21.76;28.06;98056.25;4962784;28;1321;-76
2023/03/24 05:56:41;;;;;;;;;;;;;;;21.91;27.43;98055.84;4941438;29;2167;-76
2023/03/24 05:59:25;;;;;;;;;;;;;;;22.27;26.85;98059.31;4942307;29;1117;-75
2023/03/24 06:01:52;;;;;;;;;;;;;;;21.98;27.08;98050.78;4940059;29;994;-76
2023/03/24 06:04:29;;;;;;;;;;;;;;;21.61;27.67;98057.84;4925106;29;1906;-75
2023/03/24 06:07:00;;;;;;;;;;;;;;;21.64;27.54;98054.09;4955764;29;1569;-75
2023/03/24 06:09:34;;;;;;;;;;;;;;;21.43;27.89;98061.13;4909903;29;1157;-76
2023/03/24 06:12:00;;;;;;;;;;;;;;;22.02;27.43;98056.34;4940313;29;1292;-76
2023/03/24 06:14:26;;;;;;;;;;;;;;;22.28;26.73;98057.28;4908268;29;1667;-77
2023/03/24 06:17:02;;;;;;;;;;;;;;;22.14;27.08;98055.66;4941450;29;1317;-76
2023/03/24 06:19:29;;;;;;;;;;;;;;;21.89;27.35;98053.47;4947806;28;1085;-76
2023/03/24 06:22:12;;;;;;;;;;;;;;;21.74;27.27;98057.91;4978243;28;1327;-75
2023/03/24 06:24:39;;;;;;;;;;;;;;;21.88;27.47;98056.75;4977962;28;1894;-76
2023/03/24 06:27:08;;;;;;;;;;;;;;;22.05;27.24;98056.25;4986120;28;1422;-76
2023/03/24 06:29:35;;;;;;;;;;;;;;;22.11;27.04;98053.69;4958529;28;1163;-75
2023/03/24 06:32:02;;;;;;;;;;;;;;;21.73;27.57;98057.13;4927267;28;1335;-78
2023/03/24 06:34:31;;;;;;;;;;;;;;;21.61;27.70;98059.88;4939514;29;1394;-76
2023/03/24 06:37:11;;;;;;;;;;;;;;;21.60;27.73;98056.22;4925333;29;1130;-76
2023/03/24 06:39:37;;;;;;;;;;;;;;;22.04;27.08;98056.69;4939172;29;1125;-76
2023/03/24 06:42:03;;;;;;;;;;;;;;;22.01;27.15;98060.41;4939096;29;1153;-75
2023/03/24 06:44:29;;;;;;;;;;;;;;;22.00;27.19;98053.16;4891932;29;1903;-76
2023/03/24 06:46:54;;;;;;;;;;;;;;;21.65;27.41;98054.91;4939100;29;1563;-76
2023/03/24 06:49:20;;;;;;;;;;;;;;;21.76;27.18;98050.56;4955194;29;1022;-76
2023/03/24 06:51:46;;;;;;;;;;;;;;;21.88;27.46;98051.06;4923179;29;1118;-76
2023/03/24 06:54:14;;;;;;;;;;;;;;;22.02;27.27;98047.84;4939146;29;1257;-76
2023/03/24 06:56:40;;;;;;;;;;;;;;;22.27;26.59;98053.63;4923304;29;1122;-76
2023/03/24 06:59:06;;;;;;;;;;;;;;;21.75;27.25;98051.00;4938752;29;1213;-75
2023/03/24 07:01:34;;;;;;;;;;;;;;;21.77;27.36;98060.66;4975586;28;1264;-75
2023/03/24 07:04:26;;;;;;;;;;;;;;;21.74;27.35;98058.69;4923366;29;1978;-76
2023/03/24 07:06:59;;;;;;;;;;;;;;;21.73;27.67;98053.50;4921272;29;1349;-76
2023/03/24 07:09:26;;;;;;;;;;;;;;;22.17;27.10;98068.09;4935909;29;1203;-76
2023/03/24 07:11:51;;;;;;;;;;;;;;;22.10;26.98;98063.41;4945299;29;1219;-76
2023/03/24 07:14:18;;;;;;;;;;;;;;;21.76;27.26;98061.09;4954996;29;1140;-76
2023/03/24 07:16:45;;;;;;;;;;;;;;;21.74;27.20;98064.38;4938881;29;1147;-76
2023/03/24 07:19:33;;;;;;;;;;;;;;;21.56;27.36;98067.66;4954695;28;1008;-75
2023/03/24 07:22:27;;;;;;;;;;;;;;;21.79;27.33;98061.00;4954578;29;1049;-76
2023/03/24 07:25:13;;;;;;;;;;;;;;;21.90;27.14;98062.75;4954684;29;1898;-75
2023/03/24 07:27:55;;;;;;;;;;;;;;;21.82;27.07;98065.78;4940824;29;1539;-76
2023/03/24 07:30:21;;;;;;;;;;;;;;;21.68;27.50;98066.16;4938991;29;1395;-76
2023/03/24 07:32:48;;;;;;;;;;;;;;;21.69;27.21;98067.72;4954616;29;1265;-75
2023/03/24 07:35:15;;;;;;;;;;;;;;;21.97;27.22;98066.19;4938448;29;1572;-76
2023/03/24 07:37:40;;;;;;;;;;;;;;;21.99;26.94;98068.59;4954690;29;961;-76
2023/03/24 07:40:10;;;;;;;;;;;;;;;22.17;26.61;98068.91;4957042;28;1072;-76
2023/03/24 07:42:40;;;;;;;;;;;;;;;21.99;27.08;98071.41;4954214;29;1117;-76
2023/03/24 07:45:23;;;;;;;;;;;;;;;22.05;27.10;98066.78;4925109;29;1898;-76
2023/03/24 07:47:49;;;;;;;;;;;;;;;21.93;26.85;98064.69;4954952;29;1283;-76
2023/03/24 07:50:15;;;;;;;;;;;;;;;21.79;27.29;98069.50;4897444;29;1035;-76
2023/03/24 07:52:42;;;;;;;;;;;;;;;21.81;27.15;98069.88;4882335;29;1074;-76
2023/03/24 07:55:10;;;;;;;;;;;;;;;22.30;26.72;98077.47;4881863;29;1459;-76
2023/03/24 07:57:49;;;;;;;;;;;;;;;22.30;26.51;98078.25;4854694;29;1130;-76
2023/03/24 08:00:23;;;;;;;;;;;;;;;21.68;27.42;98068.97;4878713;29;1136;-76
2023/03/24 08:03:08;;;;;;;;;;;;;;;21.76;27.14;98072.41;4854608;29;1185;-75
2023/03/24 08:05:53;;;;;;;;;;;;;;;21.82;27.13;98065.78;4828789;29;1978;-75
2023/03/24 08:08:30;;;;;;;;;;;;;;;21.93;27.08;98076.03;4828078;29;994;-76
2023/03/24 08:10:56;;;;;;;;;;;;;;;21.86;27.10;98031.69;4827616;29;1147;-76
2023/03/24 08:13:21;;;;;;;;;;;;;;;22.41;26.15;98077.16;4845304;29;1238;-76
2023/03/24 08:15:47;;;;;;;;;;;;;;;21.91;26.96;98072.84;4881657;29;1070;-76
2023/03/24 08:18:12;;;;;;;;;;;;;;;21.71;27.20;98073.78;4881970;29;964;-76
2023/03/24 08:20:38;;;;;;;;;;;;;;;21.53;27.63;98073.41;4905056;29;1110;-76
2023/03/24 08:23:05;;;;;;;;;;;;;;;22.00;26.89;98070.16;4922816;29;1000;-76
2023/03/24 08:25:30;;;;;;;;;;;;;;;22.26;26.72;98071.88;4907109;29;1907;-75
2023/03/24 08:27:56;;;;;;;;;;;;;;;22.24;26.30;98073.59;4922450;29;966;-76
2023/03/24 08:30:22;;;;;;;;;;;;;;;21.93;26.83;98059.03;4914564;28;1055;-75
2023/03/24 08:32:51;;;;;;;;;;;;;;;21.64;27.29;98064.66;4959809;28;1140;-75
2023/03/24 08:35:18;;;;;;;;;;;;;;;21.68;27.20;98062.53;4980520;28;1011;-76
2023/03/24 08:37:44;;;;;;;;;;;;;;;21.68;27.35;98063.31;4980234;28;952;-76
2023/03/24 08:40:11;;;;;;;;;;;;;;;21.97;26.76;98056.91;4996341;28;984;-76
2023/03/24 08:42:36;;;;;;;;;;;;;;;22.29;26.52;98071.00;4980168;28;1006;-76
2023/03/24 08:45:02;;;;;;;;;;;;;;;21.91;26.65;98062.28;4979739;28;1918;-76
2023/03/24 08:47:28;;;;;;;;;;;;;;;21.67;27.13;98067.41;4979963;28;1231;-76
2023/03/24 08:49:59;;;;;;;;;;;;;;;21.73;26.93;98051.44;4979762;28;1175;-76
2023/03/24 08:52:24;;;;;;;;;;;;;;;21.82;27.25;98060.13;4980135;28;1033;-76
2023/03/24 08:54:50;;;;;;;;;;;;;;;21.83;27.01;98056.03;4979683;28;1037;-75
2023/03/24 08:57:16;;;;;;;;;;;;;;;21.99;27.06;98058.03;4979938;28;1041;-76
2023/03/24 08:59:42;;;;;;;;;;;;;;;21.96;26.71;98058.13;4980065;28;1016;-76
2023/03/24 09:02:10;;;;;;;;;;;;;;;21.77;27.02;98063.50;4980087;28;1119;-76
2023/03/24 09:04:36;;;;;;;;;;;;;;;21.69;27.23;98073.41;4993560;28;2010;-75
2023/03/24 09:07:02;;;;;;;;;;;;;;;22.13;26.78;98067.44;5016699;28;923;-76
2023/03/24 09:09:28;;;;;;;;;;;;;;;22.04;26.71;98059.53;5016345;28;983;-76
2023/03/24 09:11:54;;;;;;;;;;;;;;;22.19;26.38;98065.63;5016382;28;920;-76
2023/03/24 09:14:21;;;;;;;;;;;;;;;21.66;27.12;98057.31;5000612;28;1175;-75
2023/03/24 09:16:47;;;;;;;;;;;;;;;21.85;26.90;98050.72;5017991;28;907;-75
2023/03/24 09:19:13;;;;;;;;;;;;;;;21.78;27.31;98050.91;5017197;28;984;-76
2023/03/24 09:21:40;;;;;;;;;;;;;;;21.87;27.00;98041.00;5017104;28;910;-76
2023/03/24 09:24:06;;;;;;;;;;;;;;;21.97;26.96;98048.41;4995246;28;1907;-76
2023/03/24 09:26:32;;;;;;;;;;;;;;;21.88;26.74;98046.22;4978945;28;978;-75
2023/03/24 09:28:58;;;;;;;;;;;;;;;21.69;27.14;98050.75;4995188;28;1040;-76
2023/03/24 09:31:23;;;;;;;;;;;;;;;21.72;27.12;98043.41;4995196;28;1084;-75
2023/03/24 09:33:49;;;;;;;;;;;;;;;21.64;27.27;98039.94;4978868;28;977;-75
2023/03/24 09:36:15;;;;;;;;;;;;;;;21.89;27.05;98036.47;4978992;28;966;-75
2023/03/24 09:38:41;;;;;;;;;;;;;;;22.15;26.52;98043.06;4978987;28;966;-75
2023/03/24 09:41:13;;;;;;;;;;;;;;;21.93;26.98;98040.00;4978601;28;929;-75
2023/03/24 09:43:39;;;;;;;;;;;;;;;21.97;26.75;98031.41;4978827;28;972;-74
2023/03/24 09:46:06;;;;;;;;;;;;;;;21.68;27.10;98029.34;4995094;28;1922;-75
2023/03/24 09:48:31;;;;;;;;;;;;;;;21.98;26.80;98024.50;4978580;28;1128;-75
2023/03/24 09:51:04;;;;;;;;;;;;;;;21.93;27.20;98039.22;4994748;28;950;-75
2023/03/24 09:53:30;;;;;;;;;;;;;;;22.03;26.69;98029.63;4978462;28;979;-75
2023/03/24 09:55:56;;;;;;;;;;;;;;;21.93;26.78;98025.84;5013766;28;1059;-75
2023/03/24 09:58:22;;;;;;;;;;;;;;;21.83;27.20;98033.38;4999110;28;921;-75
2023/03/24 10:00:48;;;;;;;;;;;;;;;21.85;27.29;98025.22;4999451;28;997;-75
2023/03/24 10:03:13;;;;;;;;;;;;;;;21.94;26.91;98021.75;5015358;28;1042;-76
2023/03/24 10:05:43;;;;;;;;;;;;;;;22.00;26.89;98022.78;5016575;28;1922;-75
2023/03/24 10:08:14;;;;;;;;;;;;;;;21.88;26.92;98022.75;4999098;28;1060;-75
2023/03/24 10:10:52;;;;;;;;;;;;;;;21.59;27.71;98023.50;4998911;28;961;-76
2023/03/24 10:13:24;;;;;;;;;;;;;;;21.76;27.24;98024.25;5015271;28;1114;-75
2023/03/24 10:16:03;;;;;;;;;;;;;;;22.11;27.15;98025.34;4988725;28;1960;-75
2023/03/24 10:18:44;;;;;;;;;;;;;;;22.28;26.69;98026.91;4979773;28;1038;-75
2023/03/24 10:21:16;;;;;;;;;;;;;;;21.84;27.25;98006.63;4963168;28;916;-75
2023/03/24 10:23:48;;;;;;;;;;;;;;;21.60;27.82;98013.75;4996442;28;932;-75
2023/03/24 10:26:25;;;;;;;;;;;;;;;21.62;27.56;98016.97;4996483;28;1918;-75
2023/03/24 10:29:03;;;;;;;;;;;;;;;22.04;27.06;98032.00;4979251;28;1267;-75
2023/03/24 10:31:32;;;;;;;;;;;;;;;22.18;26.82;98019.50;4996430;28;980;-75
2023/03/24 10:33:58;;;;;;;;;;;;;;;21.71;27.15;98011.47;4978730;28;1707;-75
2023/03/24 10:36:23;;;;;;;;;;;;;;;21.55;27.86;98005.81;4979274;28;945;-75
2023/03/24 10:38:49;;;;;;;;;;;;;;;21.74;27.59;98013.38;4962987;28;1135;-75
2023/03/24 10:41:15;;;;;;;;;;;;;;;21.84;27.49;98017.97;4979113;28;1142;-75
2023/03/24 10:43:41;;;;;;;;;;;;;;;22.00;27.07;97996.50;4978869;28;1277;-75
2023/03/24 10:46:07;;;;;;;;;;;;;;;22.05;26.96;98012.94;4979086;28;1906;-75
2023/03/24 10:48:39;;;;;;;;;;;;;;;21.73;27.33;98003.31;4974185;28;1030;-75
2023/03/24 10:51:05;;;;;;;;;;;;;;;21.69;27.64;97999.78;4974206;28;966;-75
2023/03/24 10:53:32;;;;;;;;;;;;;;;21.65;27.57;97999.06;4942449;28;1125;-74
2023/03/24 10:55:58;;;;;;;;;;;;;;;22.04;26.87;97986.66;4926639;28;1073;-75
2023/03/24 10:58:50;;;;;;;;;;;;;;;22.10;27.06;97995.41;4942562;28;1209;-75
2023/03/24 11:01:23;;;;;;;;;;;;;;;22.08;26.93;97986.56;4920018;29;1141;-74
2023/03/24 11:03:48;;;;;;;;;;;;;;;21.79;27.22;97992.22;4919833;29;1057;-75
2023/03/24 11:06:18;;;;;;;;;;;;;;;21.56;27.94;97987.59;4919836;29;1911;-74
2023/03/24 11:08:43;;;;;;;;;;;;;;;21.59;27.86;97984.66;4919775;29;1044;-75
2023/03/24 11:11:32;;;;;;;;;;;;;;;22.09;27.19;97988.16;4935594;29;1030;-75
2023/03/24 11:14:00;;;;;;;;;;;;;;;22.20;26.65;97983.00;4863503;29;1092;-75
2023/03/24 11:16:34;;;;;;;;;;;;;;;21.92;27.10;97995.13;4879202;29;1618;-75
2023/03/24 11:19:03;;;;;;;;;;;;;;;21.53;27.92;97985.66;4884099;29;1050;-75
2023/03/24 11:21:30;;;;;;;;;;;;;;;21.56;27.55;97984.78;4879127;29;1212;-75
2023/03/24 11:23:58;;;;;;;;;;;;;;;22.05;27.02;97976.91;4879325;29;1016;-75
2023/03/24 11:26:29;;;;;;;;;;;;;;;21.97;26.93;97969.09;4879180;29;1994;-75
2023/03/24 11:28:55;;;;;;;;;;;;;;;22.12;26.77;97970.25;4879128;29;1304;-75
2023/03/24 11:31:23;;;;;;;;;;;;;;;21.83;27.22;97959.72;4878895;29;1015;-75
2023/03/24 11:33:50;;;;;;;;;;;;;;;21.73;27.25;97972.16;4879213;29;1111;-75
2023/03/24 11:36:42;;;;;;;;;;;;;;;21.51;27.45;97965.50;4878964;29;1002;-75
2023/03/24 11:39:12;;;;;;;;;;;;;;;21.89;27.29;97956.34;4861815;29;1083;-75
2023/03/24 11:41:38;;;;;;;;;;;;;;;21.97;27.17;97957.75;4863251;29;1157;-75
2023/03/24 11:44:22;;;;;;;;;;;;;;;22.21;26.47;97961.91;4847738;29;1177;-75
2023/03/24 11:46:49;;;;;;;;;;;;;;;21.71;27.39;97962.50;4866385;29;1153;-75
2023/03/24 11:49:16;;;;;;;;;;;;;;;21.72;27.33;97953.56;4867278;29;1196;-74
2023/03/24 11:51:41;;;;;;;;;;;;;;;21.62;27.37;97960.34;4927283;29;1030;-75
2023/03/24 11:54:14;;;;;;;;;;;;;;;22.00;27.09;97951.16;4958325;28;965;-74
2023/03/24 11:56:46;;;;;;;;;;;;;;;21.83;27.25;97956.91;4942072;28;1097;-75
2023/03/24 11:59:21;;;;;;;;;;;;;;;22.12;26.85;97964.59;4958053;28;1037;-75
2023/03/24 12:01:49;;;;;;;;;;;;;;;21.71;27.15;97957.66;4957953;28;1003;-75
2023/03/24 12:04:24;;;;;;;;;;;;;;;21.92;27.21;97952.63;4942107;28;1903;-74
2023/03/24 12:07:08;;;;;;;;;;;;;;;21.85;27.17;97947.94;4954872;28;1000;-75
2023/03/24 12:09:35;;;;;;;;;;;;;;;22.06;26.94;97940.88;4982143;28;1116;-75
2023/03/24 12:12:00;;;;;;;;;;;;;;;22.20;26.70;97948.97;4981811;28;988;-75
2023/03/24 12:14:46;;;;;;;;;;;;;;;21.95;27.13;97946.06;4998903;28;959;-75
2023/03/24 12:17:30;;;;;;;;;;;;;;;21.88;27.28;97946.28;4998579;28;1127;-75
2023/03/24 12:20:02;;;;;;;;;;;;;;;21.93;26.98;97940.06;4999459;28;929;-75
2023/03/24 12:22:28;;;;;;;;;;;;;;;21.38;27.99;97934.28;4981687;28;1028;-75
2023/03/24 12:25:03;;;;;;;;;;;;;;;21.91;27.27;97939.69;4998922;28;1961;-75
2023/03/24 12:27:47;;;;;;;;;;;;;;;22.02;27.15;97931.66;4981338;28;1030;-74
2023/03/24 12:30:13;;;;;;;;;;;;;;;21.79;27.41;97936.38;4981499;28;1245;-75
2023/03/24 12:33:09;;;;;;;;;;;;;;;21.73;27.47;97931.72;4981451;28;1203;-75
2023/03/24 12:35:41;;;;;;;;;;;;;;;21.76;27.16;97925.13;4937984;29;1208;-75
2023/03/24 12:38:16;;;;;;;;;;;;;;;22.20;26.91;97931.19;4922680;29;1105;-75
2023/03/24 12:41:00;;;;;;;;;;;;;;;22.02;27.08;97926.00;4938168;29;1061;-75
2023/03/24 12:43:40;;;;;;;;;;;;;;;22.15;27.03;97924.03;4922355;29;1122;-75
2023/03/24 12:46:26;;;;;;;;;;;;;;;22.01;27.09;97913.88;4937973;29;1903;-75
2023/03/24 12:49:01;;;;;;;;;;;;;;;21.81;27.26;97918.91;4881237;29;1025;-75
2023/03/24 12:51:45;;;;;;;;;;;;;;;21.75;27.70;97921.50;4881574;29;935;-75
2023/03/24 12:54:16;;;;;;;;;;;;;;;21.86;27.16;97915.53;4865864;29;1221;-75
2023/03/24 12:56:44;;;;;;;;;;;;;;;21.96;27.04;97910.81;4880917;29;959;-75
2023/03/24 12:59:10;;;;;;;;;;;;;;;21.85;27.20;97911.91;4865968;29;1002;-75
2023/03/24 13:01:43;;;;;;;;;;;;;;;21.75;27.44;97909.41;4866064;29;1030;-75
2023/03/24 13:04:21;;;;;;;;;;;;;;;21.67;27.54;97914.47;4865448;29;1892;-74
2023/03/24 13:06:48;;;;;;;;;;;;;;;22.12;26.59;97907.91;4881034;29;1040;-75
2023/03/24 13:09:14;;;;;;;;;;;;;;;22.06;26.75;97899.16;4865911;29;976;-75
2023/03/24 13:11:59;;;;;;;;;;;;;;;22.02;26.56;97906.16;4902061;29;1134;-75
2023/03/24 13:14:33;;;;;;;;;;;;;;;21.74;27.00;97894.44;4921798;29;935;-75
2023/03/24 13:17:03;;;;;;;;;;;;;;;21.66;27.29;97893.06;4906617;29;932;-74